joomla templates top joomla templates template joomla

King Air Abend

Notam

C3641/14 - CUSTOMS AVBL PPR, TEL 0049 9561 92098. 13 NOV 14:46 2014 UNTIL PERM. CREATED: 13 NOV 14:47 2014

Neue Wetteranzeige

Aktuelles Platzwetter Stand 23.05.2017 18:41Z

AvgMinMax
Windrichtung270250290Deg
Windgeschwindigkeit8411kt
Sichtweite>10000m
Temperatur20°C
Taupunkt14°C
Feuchte67%
QNH1017.6hPa
QFE964.0hPa
WolkenSKC

Aerodrome Terminal Information Service (ATIS) Coburg

METAR
EDQC 231820Z AUTO 27008KT CAVOK 21/12 Q1017=

METAR und TAF der Umgebung

[Quelle: ADDS]
METAR
EDDF 231820Z 32007KT 260V010 CAVOK 23/11 Q1018 NOSIG =
EDDN 231820Z 29004KT 260V320 CAVOK 22/11 Q1017 NOSIG =
EDDE 231820Z 31010KT CAVOK 17/14 Q1016 NOSIG =
TAF
EDDF 231700Z 2318/2424 31008KT CAVOK TEMPO 2318/2321 32010G20KT BECMG 2420/2422 VRB03KT =
EDDN 231700Z 2318/2418 28007KT 9999 SCT040 BECMG 2406/2409 30012KT TEMPO 2411/2414 30015G25KT =
EDDE 231700Z 2318/2418 29005KT CAVOK PROB30 TEMPO 2318/2320 TSRA BKN020CB BECMG 2318/2321 31012KT PROB30 TEMPO 2403/2406 BKN014 PROB40 TEMPO 2406/2416 31015G25KT BECMG 2416/2418 33007KT =
SR / SS: 03:20 / 19:08 UTC (EDQC 2017-05-23)

Wetterverlauf

Windvorhersage

Verkehrslandeplatz Coburg Brandensteinsebene
Tower
Zur Brandensteinsebene
96450 Coburg

AeroClub Logo 200px

Aero Club Coburg e. V.
Postfach 11 09
96401 Coburg